<?xml version="1.0" encoding="UTF-8" standalone="no" ?>
<gpx xmlns="http://www.topografix.com/GPX/1/1" xmlns:xsi="http://www.w3.org/2001/XMLSchema-instance" xsi:schemaLocation="http://www.topografix.com/GPX/1/1 http://www.topografix.com/GPX/1/1/gpx.xsd" version="1.1" creator="VisuGPX - https://www.visugpx.com">
  <metadata>
    <name>Vacances 2021</name>
  </metadata>
  <trk>
    <name><![CDATA[Journal actif: 2021-07-25 11:32]]></name>
    <trkseg>
      <trkpt lat="49.21775" lon="5.26618">
        <ele>202.49</ele>
        <time>2021-07-25T13:32:46Z</time>
      </trkpt>
      <trkpt lat="49.21775" lon="5.26618">
        <ele>202.49</ele>
        <time>2021-07-25T13:33:35Z</time>
      </trkpt>
      <trkpt lat="49.21775" lon="5.26618">
        <ele>202.49</ele>
        <time>2021-07-25T13:33:45Z</time>
      </trkpt>
      <trkpt lat="49.21775" lon="5.26618">
        <ele>202.49</ele>
        <time>2021-07-25T13:33:46Z</time>
      </trkpt>
      <trkpt lat="49.21775" lon="5.26616">
        <ele>202.01</ele>
        <time>2021-07-25T13:33:59Z</time>
      </trkpt>
      <trkpt lat="49.21767" lon="5.26611">
        <ele>202.01</ele>
        <time>2021-07-25T13:34:03Z</time>
      </trkpt>
      <trkpt lat="49.2173" lon="5.26612">
        <ele>201.53</ele>
        <time>2021-07-25T13:34:18Z</time>
      </trkpt>
      <trkpt lat="49.21717" lon="5.26608">
        <ele>201.53</ele>
        <time>2021-07-25T13:34:45Z</time>
      </trkpt>
      <trkpt lat="49.21681" lon="5.26555">
        <ele>204.9</ele>
        <time>2021-07-25T13:34:55Z</time>
      </trkpt>
      <trkpt lat="49.21608" lon="5.26481">
        <ele>209.7</ele>
        <time>2021-07-25T13:35:06Z</time>
      </trkpt>
      <trkpt lat="49.21511" lon="5.26319">
        <ele>215.95</ele>
        <time>2021-07-25T13:35:21Z</time>
      </trkpt>
      <trkpt lat="49.21475" lon="5.26249">
        <ele>216.91</ele>
        <time>2021-07-25T13:35:30Z</time>
      </trkpt>
      <trkpt lat="49.2145" lon="5.26202">
        <ele>216.91</ele>
        <time>2021-07-25T13:35:42Z</time>
      </trkpt>
      <trkpt lat="49.21413" lon="5.26129">
        <ele>217.88</ele>
        <time>2021-07-25T13:35:51Z</time>
      </trkpt>
      <trkpt lat="49.21317" lon="5.25945">
        <ele>220.28</ele>
        <time>2021-07-25T13:36:05Z</time>
      </trkpt>
      <trkpt lat="49.21171" lon="5.25643">
        <ele>229.89</ele>
        <time>2021-07-25T13:36:25Z</time>
      </trkpt>
      <trkpt lat="49.21079" lon="5.25387">
        <ele>239.51</ele>
        <time>2021-07-25T13:36:41Z</time>
      </trkpt>
      <trkpt lat="49.21055" lon="5.25305">
        <ele>242.39</ele>
        <time>2021-07-25T13:36:46Z</time>
      </trkpt>
      <trkpt lat="49.21052" lon="5.25288">
        <ele>242.87</ele>
        <time>2021-07-25T13:36:47Z</time>
      </trkpt>
      <trkpt lat="49.21039" lon="5.25208">
        <ele>244.31</ele>
        <time>2021-07-25T13:36:52Z</time>
      </trkpt>
      <trkpt lat="49.21036" lon="5.25194">
        <ele>245.27</ele>
        <time>2021-07-25T13:36:53Z</time>
      </trkpt>
      <trkpt lat="49.21031" lon="5.25181">
        <ele>246.23</ele>
        <time>2021-07-25T13:36:54Z</time>
      </trkpt>
      <trkpt lat="49.21027" lon="5.25168">
        <ele>245.75</ele>
        <time>2021-07-25T13:36:55Z</time>
      </trkpt>
      <trkpt lat="49.21021" lon="5.25156">
        <ele>245.75</ele>
        <time>2021-07-25T13:36:56Z</time>
      </trkpt>
      <trkpt lat="49.20934" lon="5.24978">
        <ele>241.43</ele>
        <time>2021-07-25T13:37:08Z</time>
      </trkpt>
      <trkpt lat="49.20884" lon="5.24765">
        <ele>232.78</ele>
        <time>2021-07-25T13:37:19Z</time>
      </trkpt>
      <trkpt lat="49.20815" lon="5.24449">
        <ele>224.12</ele>
        <time>2021-07-25T13:37:34Z</time>
      </trkpt>
      <trkpt lat="49.20737" lon="5.24319">
        <ele>223.64</ele>
        <time>2021-07-25T13:37:42Z</time>
      </trkpt>
      <trkpt lat="49.20625" lon="5.24192">
        <ele>225.57</ele>
        <time>2021-07-25T13:37:53Z</time>
      </trkpt>
      <trkpt lat="49.20615" lon="5.24172">
        <ele>226.53</ele>
        <time>2021-07-25T13:37:55Z</time>
      </trkpt>
      <trkpt lat="49.20609" lon="5.2416">
        <ele>226.53</ele>
        <time>2021-07-25T13:37:56Z</time>
      </trkpt>
      <trkpt lat="49.20604" lon="5.24149">
        <ele>225.57</ele>
        <time>2021-07-25T13:37:57Z</time>
      </trkpt>
      <trkpt lat="49.20603" lon="5.24134">
        <ele>225.09</ele>
        <time>2021-07-25T13:37:58Z</time>
      </trkpt>
      <trkpt lat="49.20601" lon="5.2412">
        <ele>224.61</ele>
        <time>2021-07-25T13:37:59Z</time>
      </trkpt>
      <trkpt lat="49.20598" lon="5.24105">
        <ele>224.61</ele>
        <time>2021-07-25T13:38:00Z</time>
      </trkpt>
      <trkpt lat="49.20596" lon="5.24089">
        <ele>224.61</ele>
        <time>2021-07-25T13:38:01Z</time>
      </trkpt>
      <trkpt lat="49.20598" lon="5.24074">
        <ele>224.61</ele>
        <time>2021-07-25T13:38:02Z</time>
      </trkpt>
      <trkpt lat="49.20601" lon="5.24058">
        <ele>225.09</ele>
        <time>2021-07-25T13:38:03Z</time>
      </trkpt>
      <trkpt lat="49.20648" lon="5.23757">
        <ele>226.53</ele>
        <time>2021-07-25T13:38:20Z</time>
      </trkpt>
      <trkpt lat="49.20695" lon="5.23465">
        <ele>228.45</ele>
        <time>2021-07-25T13:38:33Z</time>
      </trkpt>
      <trkpt lat="49.20759" lon="5.23071">
        <ele>232.78</ele>
        <time>2021-07-25T13:38:51Z</time>
      </trkpt>
      <trkpt lat="49.20811" lon="5.22745">
        <ele>244.79</ele>
        <time>2021-07-25T13:39:06Z</time>
      </trkpt>
      <trkpt lat="49.20824" lon="5.22661">
        <ele>247.2</ele>
        <time>2021-07-25T13:39:13Z</time>
      </trkpt>
      <trkpt lat="49.20839" lon="5.22554">
        <ele>245.27</ele>
        <time>2021-07-25T13:39:21Z</time>
      </trkpt>
      <trkpt lat="49.20875" lon="5.22274">
        <ele>237.1</ele>
        <time>2021-07-25T13:39:35Z</time>
      </trkpt>
      <trkpt lat="49.20899" lon="5.22025">
        <ele>231.81</ele>
        <time>2021-07-25T13:39:48Z</time>
      </trkpt>
      <trkpt lat="49.20891" lon="5.21971">
        <ele>230.37</ele>
        <time>2021-07-25T13:39:51Z</time>
      </trkpt>
      <trkpt lat="49.20886" lon="5.21955">
        <ele>230.85</ele>
        <time>2021-07-25T13:39:52Z</time>
      </trkpt>
      <trkpt lat="49.20804" lon="5.21742">
        <ele>231.33</ele>
        <time>2021-07-25T13:40:06Z</time>
      </trkpt>
      <trkpt lat="49.20753" lon="5.216">
        <ele>234.7</ele>
        <time>2021-07-25T13:40:18Z</time>
      </trkpt>
      <trkpt lat="49.20751" lon="5.21587">
        <ele>234.7</ele>
        <time>2021-07-25T13:40:19Z</time>
      </trkpt>
      <trkpt lat="49.20748" lon="5.21575">
        <ele>234.7</ele>
        <time>2021-07-25T13:40:20Z</time>
      </trkpt>
      <trkpt lat="49.20747" lon="5.21562">
        <ele>234.7</ele>
        <time>2021-07-25T13:40:21Z</time>
      </trkpt>
      <trkpt lat="49.20749" lon="5.2155">
        <ele>234.7</ele>
        <time>2021-07-25T13:40:22Z</time>
      </trkpt>
      <trkpt lat="49.20751" lon="5.21537">
        <ele>234.22</ele>
        <time>2021-07-25T13:40:23Z</time>
      </trkpt>
      <trkpt lat="49.20753" lon="5.21523">
        <ele>233.26</ele>
        <time>2021-07-25T13:40:24Z</time>
      </trkpt>
      <trkpt lat="49.20769" lon="5.21327">
        <ele>229.89</ele>
        <time>2021-07-25T13:40:38Z</time>
      </trkpt>
      <trkpt lat="49.20772" lon="5.21189">
        <ele>229.89</ele>
        <time>2021-07-25T13:40:49Z</time>
      </trkpt>
      <trkpt lat="49.20773" lon="5.21181">
        <ele>229.89</ele>
        <time>2021-07-25T13:40:50Z</time>
      </trkpt>
      <trkpt lat="49.20776" lon="5.2117">
        <ele>229.89</ele>
        <time>2021-07-25T13:40:51Z</time>
      </trkpt>
      <trkpt lat="49.20776" lon="5.2117">
        <ele>230.37</ele>
        <time>2021-07-25T13:40:52Z</time>
      </trkpt>
      <trkpt lat="49.2078" lon="5.21165">
        <ele>229.89</ele>
        <time>2021-07-25T13:40:53Z</time>
      </trkpt>
      <trkpt lat="49.20781" lon="5.21164">
        <ele>229.89</ele>
        <time>2021-07-25T13:40:54Z</time>
      </trkpt>
      <trkpt lat="49.20781" lon="5.21164">
        <ele>229.89</ele>
        <time>2021-07-25T13:40:55Z</time>
      </trkpt>
      <trkpt lat="49.20812" lon="5.21141">
        <ele>229.41</ele>
        <time>2021-07-25T13:41:06Z</time>
      </trkpt>
      <trkpt lat="49.20898" lon="5.21084">
        <ele>232.3</ele>
        <time>2021-07-25T13:41:21Z</time>
      </trkpt>
      <trkpt lat="49.20904" lon="5.21081">
        <ele>232.78</ele>
        <time>2021-07-25T13:41:22Z</time>
      </trkpt>
      <trkpt lat="49.2091" lon="5.21083">
        <ele>233.26</ele>
        <time>2021-07-25T13:41:23Z</time>
      </trkpt>
      <trkpt lat="49.20917" lon="5.21086">
        <ele>233.74</ele>
        <time>2021-07-25T13:41:24Z</time>
      </trkpt>
      <trkpt lat="49.20924" lon="5.2109">
        <ele>234.22</ele>
        <time>2021-07-25T13:41:25Z</time>
      </trkpt>
      <trkpt lat="49.20937" lon="5.21105">
        <ele>234.7</ele>
        <time>2021-07-25T13:41:26Z</time>
      </trkpt>
      <trkpt lat="49.20937" lon="5.21105">
        <ele>235.18</ele>
        <time>2021-07-25T13:41:27Z</time>
      </trkpt>
      <trkpt lat="49.21043" lon="5.21227">
        <ele>241.43</ele>
        <time>2021-07-25T13:41:39Z</time>
      </trkpt>
      <trkpt lat="49.21069" lon="5.21256">
        <ele>242.87</ele>
        <time>2021-07-25T13:41:42Z</time>
      </trkpt>
      <trkpt lat="49.21086" lon="5.21268">
        <ele>242.87</ele>
        <time>2021-07-25T13:41:43Z</time>
      </trkpt>
      <trkpt lat="49.21086" lon="5.21268">
        <ele>242.39</ele>
        <time>2021-07-25T13:41:44Z</time>
      </trkpt>
      <trkpt lat="49.21096" lon="5.21269">
        <ele>241.91</ele>
        <time>2021-07-25T13:41:45Z</time>
      </trkpt>
      <trkpt lat="49.21107" lon="5.21267">
        <ele>241.43</ele>
        <time>2021-07-25T13:41:46Z</time>
      </trkpt>
      <trkpt lat="49.21115" lon="5.21263">
        <ele>241.91</ele>
        <time>2021-07-25T13:41:47Z</time>
      </trkpt>
      <trkpt lat="49.21124" lon="5.21254">
        <ele>242.87</ele>
        <time>2021-07-25T13:41:48Z</time>
      </trkpt>
      <trkpt lat="49.21129" lon="5.21245">
        <ele>243.83</ele>
        <time>2021-07-25T13:41:49Z</time>
      </trkpt>
      <trkpt lat="49.21133" lon="5.21233">
        <ele>244.31</ele>
        <time>2021-07-25T13:41:50Z</time>
      </trkpt>
      <trkpt lat="49.21137" lon="5.21222">
        <ele>244.31</ele>
        <time>2021-07-25T13:41:51Z</time>
      </trkpt>
      <trkpt lat="49.21139" lon="5.21213">
        <ele>244.79</ele>
        <time>2021-07-25T13:41:52Z</time>
      </trkpt>
      <trkpt lat="49.21139" lon="5.21201">
        <ele>244.79</ele>
        <time>2021-07-25T13:41:53Z</time>
      </trkpt>
      <trkpt lat="49.21138" lon="5.2119">
        <ele>245.27</ele>
        <time>2021-07-25T13:41:54Z</time>
      </trkpt>
      <trkpt lat="49.21136" lon="5.21178">
        <ele>245.75</ele>
        <time>2021-07-25T13:41:55Z</time>
      </trkpt>
      <trkpt lat="49.21092" lon="5.20981">
        <ele>255.37</ele>
        <time>2021-07-25T13:42:08Z</time>
      </trkpt>
      <trkpt lat="49.21036" lon="5.20748">
        <ele>264.5</ele>
        <time>2021-07-25T13:42:23Z</time>
      </trkpt>
      <trkpt lat="49.20958" lon="5.205">
        <ele>274.59</ele>
        <time>2021-07-25T13:42:37Z</time>
      </trkpt>
      <trkpt lat="49.20876" lon="5.20269">
        <ele>284.69</ele>
        <time>2021-07-25T13:42:50Z</time>
      </trkpt>
      <trkpt lat="49.20859" lon="5.20194">
        <ele>288.05</ele>
        <time>2021-07-25T13:42:57Z</time>
      </trkpt>
      <trkpt lat="49.2082" lon="5.20021">
        <ele>294.3</ele>
        <time>2021-07-25T13:43:08Z</time>
      </trkpt>
      <trkpt lat="49.20777" lon="5.19776">
        <ele>295.26</ele>
        <time>2021-07-25T13:43:20Z</time>
      </trkpt>
      <trkpt lat="49.20718" lon="5.19355">
        <ele>294.78</ele>
        <time>2021-07-25T13:43:39Z</time>
      </trkpt>
      <trkpt lat="49.20682" lon="5.19099">
        <ele>292.86</ele>
        <time>2021-07-25T13:43:53Z</time>
      </trkpt>
      <trkpt lat="49.20653" lon="5.18898">
        <ele>290.46</ele>
        <time>2021-07-25T13:44:06Z</time>
      </trkpt>
      <trkpt lat="49.20616" lon="5.18611">
        <ele>291.42</ele>
        <time>2021-07-25T13:44:20Z</time>
      </trkpt>
      <trkpt lat="49.20629" lon="5.18341">
        <ele>285.17</ele>
        <time>2021-07-25T13:44:32Z</time>
      </trkpt>
      <trkpt lat="49.20657" lon="5.17883">
        <ele>278.92</ele>
        <time>2021-07-25T13:44:52Z</time>
      </trkpt>
      <trkpt lat="49.20685" lon="5.17408">
        <ele>276.04</ele>
        <time>2021-07-25T13:45:11Z</time>
      </trkpt>
      <trkpt lat="49.20711" lon="5.16951">
        <ele>264.98</ele>
        <time>2021-07-25T13:45:28Z</time>
      </trkpt>
      <trkpt lat="49.20744" lon="5.16395">
        <ele>258.25</ele>
        <time>2021-07-25T13:45:47Z</time>
      </trkpt>
      <trkpt lat="49.2078" lon="5.1577">
        <ele>254.89</ele>
        <time>2021-07-25T13:46:08Z</time>
      </trkpt>
      <trkpt lat="49.20809" lon="5.15277">
        <ele>257.29</ele>
        <time>2021-07-25T13:46:26Z</time>
      </trkpt>
      <trkpt lat="49.2083" lon="5.14845">
        <ele>245.75</ele>
        <time>2021-07-25T13:46:42Z</time>
      </trkpt>
      <trkpt lat="49.20828" lon="5.14824">
        <ele>243.83</ele>
        <time>2021-07-25T13:46:43Z</time>
      </trkpt>
      <trkpt lat="49.20825" lon="5.148">
        <ele>242.39</ele>
        <time>2021-07-25T13:46:44Z</time>
      </trkpt>
      <trkpt lat="49.20822" lon="5.14778">
        <ele>242.87</ele>
        <time>2021-07-25T13:46:45Z</time>
      </trkpt>
      <trkpt lat="49.20815" lon="5.14759">
        <ele>242.87</ele>
        <time>2021-07-25T13:46:46Z</time>
      </trkpt>
      <trkpt lat="49.20808" lon="5.14739">
        <ele>241.43</ele>
        <time>2021-07-25T13:46:47Z</time>
      </trkpt>
      <trkpt lat="49.20751" lon="5.14575">
        <ele>236.14</ele>
        <time>2021-07-25T13:46:57Z</time>
      </trkpt>
      <trkpt lat="49.20747" lon="5.14559">
        <ele>234.7</ele>
        <time>2021-07-25T13:46:58Z</time>
      </trkpt>
      <trkpt lat="49.20747" lon="5.14543">
        <ele>234.22</ele>
        <time>2021-07-25T13:46:59Z</time>
      </trkpt>
      <trkpt lat="49.20749" lon="5.14528">
        <ele>233.74</ele>
        <time>2021-07-25T13:47:00Z</time>
      </trkpt>
      <trkpt lat="49.20754" lon="5.1445">
        <ele>228.93</ele>
        <time>2021-07-25T13:47:05Z</time>
      </trkpt>
      <trkpt lat="49.20754" lon="5.14435">
        <ele>228.93</ele>
        <time>2021-07-25T13:47:06Z</time>
      </trkpt>
      <trkpt lat="49.20752" lon="5.14421">
        <ele>227.97</ele>
        <time>2021-07-25T13:47:07Z</time>
      </trkpt>
      <trkpt lat="49.20751" lon="5.14409">
        <ele>227.01</ele>
        <time>2021-07-25T13:47:08Z</time>
      </trkpt>
      <trkpt lat="49.20749" lon="5.14397">
        <ele>226.53</ele>
        <time>2021-07-25T13:47:09Z</time>
      </trkpt>
      <trkpt lat="49.20739" lon="5.1435">
        <ele>225.57</ele>
        <time>2021-07-25T13:47:16Z</time>
      </trkpt>
      <trkpt lat="49.20735" lon="5.14338">
        <ele>225.09</ele>
        <time>2021-07-25T13:47:21Z</time>
      </trkpt>
      <trkpt lat="49.20727" lon="5.14336">
        <ele>225.09</ele>
        <time>2021-07-25T13:47:22Z</time>
      </trkpt>
      <trkpt lat="49.20723" lon="5.14335">
        <ele>225.09</ele>
        <time>2021-07-25T13:47:23Z</time>
      </trkpt>
      <trkpt lat="49.20672" lon="5.14323">
        <ele>224.12</ele>
        <time>2021-07-25T13:47:31Z</time>
      </trkpt>
      <trkpt lat="49.2054" lon="5.14292">
        <ele>224.12</ele>
        <time>2021-07-25T13:47:43Z</time>
      </trkpt>
      <trkpt lat="49.20398" lon="5.14222">
        <ele>216.43</ele>
        <time>2021-07-25T13:47:56Z</time>
      </trkpt>
      <trkpt lat="49.20389" lon="5.14211">
        <ele>217.4</ele>
        <time>2021-07-25T13:47:57Z</time>
      </trkpt>
      <trkpt lat="49.20369" lon="5.14188">
        <ele>218.36</ele>
        <time>2021-07-25T13:47:58Z</time>
      </trkpt>
      <trkpt lat="49.20302" lon="5.14093">
        <ele>220.76</ele>
        <time>2021-07-25T13:48:06Z</time>
      </trkpt>
      <trkpt lat="49.20295" lon="5.14077">
        <ele>220.28</ele>
        <time>2021-07-25T13:48:07Z</time>
      </trkpt>
      <trkpt lat="49.20209" lon="5.13851">
        <ele>219.8</ele>
        <time>2021-07-25T13:48:18Z</time>
      </trkpt>
      <trkpt lat="49.20119" lon="5.13674">
        <ele>220.76</ele>
        <time>2021-07-25T13:48:27Z</time>
      </trkpt>
      <trkpt lat="49.20102" lon="5.13641">
        <ele>219.8</ele>
        <time>2021-07-25T13:48:29Z</time>
      </trkpt>
      <trkpt lat="49.20094" lon="5.13624">
        <ele>218.84</ele>
        <time>2021-07-25T13:48:30Z</time>
      </trkpt>
      <trkpt lat="49.20088" lon="5.13606">
        <ele>219.32</ele>
        <time>2021-07-25T13:48:31Z</time>
      </trkpt>
      <trkpt lat="49.20083" lon="5.13585">
        <ele>218.84</ele>
        <time>2021-07-25T13:48:32Z</time>
      </trkpt>
      <trkpt lat="49.20077" lon="5.13565">
        <ele>218.84</ele>
        <time>2021-07-25T13:48:33Z</time>
      </trkpt>
      <trkpt lat="49.20036" lon="5.13268">
        <ele>216.43</ele>
        <time>2021-07-25T13:48:45Z</time>
      </trkpt>
      <trkpt lat="49.20008" lon="5.13153">
        <ele>216.43</ele>
        <time>2021-07-25T13:48:50Z</time>
      </trkpt>
      <trkpt lat="49.19999" lon="5.13134">
        <ele>216.91</ele>
        <time>2021-07-25T13:48:51Z</time>
      </trkpt>
      <trkpt lat="49.19989" lon="5.13114">
        <ele>216.91</ele>
        <time>2021-07-25T13:48:52Z</time>
      </trkpt>
      <trkpt lat="49.19945" lon="5.13036">
        <ele>215.95</ele>
        <time>2021-07-25T13:48:56Z</time>
      </trkpt>
      <trkpt lat="49.19936" lon="5.13015">
        <ele>215.47</ele>
        <time>2021-07-25T13:48:57Z</time>
      </trkpt>
      <trkpt lat="49.19864" lon="5.12827">
        <ele>214.03</ele>
        <time>2021-07-25T13:49:06Z</time>
      </trkpt>
      <trkpt lat="49.19827" lon="5.12757">
        <ele>214.03</ele>
        <time>2021-07-25T13:49:10Z</time>
      </trkpt>
      <trkpt lat="49.19822" lon="5.1274">
        <ele>214.99</ele>
        <time>2021-07-25T13:49:11Z</time>
      </trkpt>
      <trkpt lat="49.19817" lon="5.12724">
        <ele>215.47</ele>
        <time>2021-07-25T13:49:12Z</time>
      </trkpt>
      <trkpt lat="49.19816" lon="5.12706">
        <ele>214.99</ele>
        <time>2021-07-25T13:49:13Z</time>
      </trkpt>
      <trkpt lat="49.19815" lon="5.12686">
        <ele>214.51</ele>
        <time>2021-07-25T13:49:14Z</time>
      </trkpt>
      <trkpt lat="49.19814" lon="5.12649">
        <ele>214.03</ele>
        <time>2021-07-25T13:49:15Z</time>
      </trkpt>
      <trkpt lat="49.19799" lon="5.12431">
        <ele>213.07</ele>
        <time>2021-07-25T13:49:26Z</time>
      </trkpt>
      <trkpt lat="49.19741" lon="5.12051">
        <ele>211.63</ele>
        <time>2021-07-25T13:49:42Z</time>
      </trkpt>
      <trkpt lat="49.19673" lon="5.11919">
        <ele>211.63</ele>
        <time>2021-07-25T13:49:49Z</time>
      </trkpt>
      <trkpt lat="49.19595" lon="5.11858">
        <ele>208.74</ele>
        <time>2021-07-25T13:49:56Z</time>
      </trkpt>
      <trkpt lat="49.19588" lon="5.11853">
        <ele>209.7</ele>
        <time>2021-07-25T13:49:57Z</time>
      </trkpt>
      <trkpt lat="49.19582" lon="5.11849">
        <ele>210.19</ele>
        <time>2021-07-25T13:49:58Z</time>
      </trkpt>
      <trkpt lat="49.19581" lon="5.11836">
        <ele>210.19</ele>
        <time>2021-07-25T13:49:59Z</time>
      </trkpt>
      <trkpt lat="49.19583" lon="5.11825">
        <ele>209.7</ele>
        <time>2021-07-25T13:50:00Z</time>
      </trkpt>
      <trkpt lat="49.19585" lon="5.11813">
        <ele>209.7</ele>
        <time>2021-07-25T13:50:01Z</time>
      </trkpt>
      <trkpt lat="49.19587" lon="5.11797">
        <ele>210.19</ele>
        <time>2021-07-25T13:50:02Z</time>
      </trkpt>
      <trkpt lat="49.1959" lon="5.1178">
        <ele>210.19</ele>
        <time>2021-07-25T13:50:03Z</time>
      </trkpt>
      <trkpt lat="49.19621" lon="5.11584">
        <ele>208.74</ele>
        <time>2021-07-25T13:50:12Z</time>
      </trkpt>
      <trkpt lat="49.19686" lon="5.11193">
        <ele>204.9</ele>
        <time>2021-07-25T13:50:27Z</time>
      </trkpt>
      <trkpt lat="49.19785" lon="5.10944">
        <ele>204.42</ele>
        <time>2021-07-25T13:50:37Z</time>
      </trkpt>
      <trkpt lat="49.19958" lon="5.10499">
        <ele>204.9</ele>
        <time>2021-07-25T13:50:54Z</time>
      </trkpt>
      <trkpt lat="49.20093" lon="5.1014">
        <ele>207.78</ele>
        <time>2021-07-25T13:51:07Z</time>
      </trkpt>
      <trkpt lat="49.20241" lon="5.0972">
        <ele>205.86</ele>
        <time>2021-07-25T13:51:25Z</time>
      </trkpt>
      <trkpt lat="49.2032" lon="5.09488">
        <ele>203.46</ele>
        <time>2021-07-25T13:51:35Z</time>
      </trkpt>
      <trkpt lat="49.20385" lon="5.09311">
        <ele>204.42</ele>
        <time>2021-07-25T13:51:43Z</time>
      </trkpt>
      <trkpt lat="49.20456" lon="5.09215">
        <ele>203.46</ele>
        <time>2021-07-25T13:51:50Z</time>
      </trkpt>
      <trkpt lat="49.20474" lon="5.09199">
        <ele>203.94</ele>
        <time>2021-07-25T13:51:56Z</time>
      </trkpt>
      <trkpt lat="49.20489" lon="5.09191">
        <ele>203.46</ele>
        <time>2021-07-25T13:52:03Z</time>
      </trkpt>
      <trkpt lat="49.20544" lon="5.09155">
        <ele>202.49</ele>
        <time>2021-07-25T13:52:09Z</time>
      </trkpt>
      <trkpt lat="49.20625" lon="5.0904">
        <ele>201.05</ele>
        <time>2021-07-25T13:52:16Z</time>
      </trkpt>
      <trkpt lat="49.20791" lon="5.08771">
        <ele>198.65</ele>
        <time>2021-07-25T13:52:29Z</time>
      </trkpt>
      <trkpt lat="49.20885" lon="5.08615">
        <ele>196.25</ele>
        <time>2021-07-25T13:52:35Z</time>
      </trkpt>
      <trkpt lat="49.20891" lon="5.08595">
        <ele>196.73</ele>
        <time>2021-07-25T13:52:36Z</time>
      </trkpt>
      <trkpt lat="49.20891" lon="5.08595">
        <ele>196.73</ele>
        <time>2021-07-25T13:52:37Z</time>
      </trkpt>
      <trkpt lat="49.20897" lon="5.08551">
        <ele>196.25</ele>
        <time>2021-07-25T13:52:38Z</time>
      </trkpt>
      <trkpt lat="49.20897" lon="5.08551">
        <ele>196.73</ele>
        <time>2021-07-25T13:52:39Z</time>
      </trkpt>
      <trkpt lat="49.20898" lon="5.08529">
        <ele>197.69</ele>
        <time>2021-07-25T13:52:40Z</time>
      </trkpt>
      <trkpt lat="49.20898" lon="5.08508">
        <ele>198.17</ele>
        <time>2021-07-25T13:52:41Z</time>
      </trkpt>
      <trkpt lat="49.20899" lon="5.08487">
        <ele>199.61</ele>
        <time>2021-07-25T13:52:42Z</time>
      </trkpt>
      <trkpt lat="49.20903" lon="5.08469">
        <ele>200.57</ele>
        <time>2021-07-25T13:52:43Z</time>
      </trkpt>
      <trkpt lat="49.20909" lon="5.08455">
        <ele>201.53</ele>
        <time>2021-07-25T13:52:44Z</time>
      </trkpt>
      <trkpt lat="49.20918" lon="5.08439">
        <ele>202.49</ele>
        <time>2021-07-25T13:52:45Z</time>
      </trkpt>
      <trkpt lat="49.20927" lon="5.08423">
        <ele>202.98</ele>
        <time>2021-07-25T13:52:46Z</time>
      </trkpt>
      <trkpt lat="49.21003" lon="5.08282">
        <ele>206.82</ele>
        <time>2021-07-25T13:52:54Z</time>
      </trkpt>
      <trkpt lat="49.21099" lon="5.08118">
        <ele>200.57</ele>
        <time>2021-07-25T13:53:02Z</time>
      </trkpt>
      <trkpt lat="49.21185" lon="5.07943">
        <ele>196.25</ele>
        <time>2021-07-25T13:53:09Z</time>
      </trkpt>
      <trkpt lat="49.21297" lon="5.07546">
        <ele>199.13</ele>
        <time>2021-07-25T13:53:22Z</time>
      </trkpt>
      <trkpt lat="49.21374" lon="5.07281">
        <ele>198.17</ele>
        <time>2021-07-25T13:53:31Z</time>
      </trkpt>
      <trkpt lat="49.21386" lon="5.07255">
        <ele>197.69</ele>
        <time>2021-07-25T13:53:32Z</time>
      </trkpt>
      <trkpt lat="49.21398" lon="5.07232">
        <ele>196.25</ele>
        <time>2021-07-25T13:53:33Z</time>
      </trkpt>
      <trkpt lat="49.21569" lon="5.06999">
        <ele>189.52</ele>
        <time>2021-07-25T13:53:43Z</time>
      </trkpt>
      <trkpt lat="49.21705" lon="5.06695">
        <ele>193.84</ele>
        <time>2021-07-25T13:53:55Z</time>
      </trkpt>
      <trkpt lat="49.21883" lon="5.06294">
        <ele>199.13</ele>
        <time>2021-07-25T13:54:09Z</time>
      </trkpt>
      <trkpt lat="49.22011" lon="5.06052">
        <ele>194.32</ele>
        <time>2021-07-25T13:54:18Z</time>
      </trkpt>
      <trkpt lat="49.22286" lon="5.05646">
        <ele>192.88</ele>
        <time>2021-07-25T13:54:34Z</time>
      </trkpt>
      <trkpt lat="49.22347" lon="5.05516">
        <ele>197.21</ele>
        <time>2021-07-25T13:54:39Z</time>
      </trkpt>
      <trkpt lat="49.22426" lon="5.05291">
        <ele>196.25</ele>
        <time>2021-07-25T13:54:49Z</time>
      </trkpt>
      <trkpt lat="49.22451" lon="5.05221">
        <ele>198.17</ele>
        <time>2021-07-25T13:54:52Z</time>
      </trkpt>
      <trkpt lat="49.22455" lon="5.05197">
        <ele>197.69</ele>
        <time>2021-07-25T13:54:53Z</time>
      </trkpt>
      <trkpt lat="49.22458" lon="5.05172">
        <ele>197.21</ele>
        <time>2021-07-25T13:54:54Z</time>
      </trkpt>
      <trkpt lat="49.22467" lon="5.04873">
        <ele>192.88</ele>
        <time>2021-07-25T13:55:05Z</time>
      </trkpt>
      <trkpt lat="49.22439" lon="5.04634">
        <ele>190.96</ele>
        <time>2021-07-25T13:55:13Z</time>
      </trkpt>
      <trkpt lat="49.22404" lon="5.04357">
        <ele>186.63</ele>
        <time>2021-07-25T13:55:23Z</time>
      </trkpt>
      <trkpt lat="49.22408" lon="5.04111">
        <ele>170.77</ele>
        <time>2021-07-25T13:55:32Z</time>
      </trkpt>
      <trkpt lat="49.22418" lon="5.03859">
        <ele>160.68</ele>
        <time>2021-07-25T13:55:42Z</time>
      </trkpt>
      <trkpt lat="49.22419" lon="5.0384">
        <ele>159.72</ele>
        <time>2021-07-25T13:55:43Z</time>
      </trkpt>
      <trkpt lat="49.2242" lon="5.03822">
        <ele>159.24</ele>
        <time>2021-07-25T13:55:44Z</time>
      </trkpt>
      <trkpt lat="49.22426" lon="5.03807">
        <ele>157.31</ele>
        <time>2021-07-25T13:55:45Z</time>
      </trkpt>
      <trkpt lat="49.22431" lon="5.03792">
        <ele>156.35</ele>
        <time>2021-07-25T13:55:46Z</time>
      </trkpt>
      <trkpt lat="49.22442" lon="5.03761">
        <ele>155.87</ele>
        <time>2021-07-25T13:55:47Z</time>
      </trkpt>
      <trkpt lat="49.22448" lon="5.03748">
        <ele>154.43</ele>
        <time>2021-07-25T13:55:48Z</time>
      </trkpt>
      <trkpt lat="49.22483" lon="5.03683">
        <ele>154.43</ele>
        <time>2021-07-25T13:55:56Z</time>
      </trkpt>
      <trkpt lat="49.22553" lon="5.03609">
        <ele>152.99</ele>
        <time>2021-07-25T13:56:06Z</time>
      </trkpt>
      <trkpt lat="49.22647" lon="5.03546">
        <ele>152.51</ele>
        <time>2021-07-25T13:56:20Z</time>
      </trkpt>
      <trkpt lat="49.22737" lon="5.03511">
        <ele>151.54</ele>
        <time>2021-07-25T13:56:30Z</time>
      </trkpt>
      <trkpt lat="49.22782" lon="5.03497">
        <ele>151.54</ele>
        <time>2021-07-25T13:56:43Z</time>
      </trkpt>
      <trkpt lat="49.22782" lon="5.03497">
        <ele>152.51</ele>
        <time>2021-07-25T13:56:46Z</time>
      </trkpt>
      <trkpt lat="49.22794" lon="5.03502">
        <ele>152.51</ele>
        <time>2021-07-25T13:56:47Z</time>
      </trkpt>
      <trkpt lat="49.22795" lon="5.03508">
        <ele>152.51</ele>
        <time>2021-07-25T13:56:48Z</time>
      </trkpt>
      <trkpt lat="49.228" lon="5.03528">
        <ele>152.51</ele>
        <time>2021-07-25T13:56:52Z</time>
      </trkpt>
      <trkpt lat="49.22802" lon="5.03535">
        <ele>152.51</ele>
        <time>2021-07-25T13:56:53Z</time>
      </trkpt>
      <trkpt lat="49.22803" lon="5.0354">
        <ele>152.03</ele>
        <time>2021-07-25T13:56:54Z</time>
      </trkpt>
      <trkpt lat="49.22804" lon="5.03545">
        <ele>152.03</ele>
        <time>2021-07-25T13:56:55Z</time>
      </trkpt>
      <trkpt lat="49.22805" lon="5.03548">
        <ele>152.51</ele>
        <time>2021-07-25T13:56:56Z</time>
      </trkpt>
      <trkpt lat="49.22806" lon="5.03552">
        <ele>152.51</ele>
        <time>2021-07-25T13:56:57Z</time>
      </trkpt>
      <trkpt lat="49.22806" lon="5.03555">
        <ele>152.51</ele>
        <time>2021-07-25T13:56:58Z</time>
      </trkpt>
      <trkpt lat="49.22807" lon="5.03557">
        <ele>152.51</ele>
        <time>2021-07-25T13:57:17Z</time>
      </trkpt>
      <trkpt lat="49.22814" lon="5.03589">
        <ele>152.51</ele>
        <time>2021-07-25T14:00:53Z</time>
      </trkpt>
      <trkpt lat="49.22819" lon="5.03613">
        <ele>152.99</ele>
        <time>2021-07-25T14:01:02Z</time>
      </trkpt>
      <trkpt lat="49.2282" lon="5.03615">
        <ele>152.99</ele>
        <time>2021-07-25T14:01:03Z</time>
      </trkpt>
      <trkpt lat="49.2282" lon="5.03618">
        <ele>152.99</ele>
        <time>2021-07-25T14:01:04Z</time>
      </trkpt>
      <trkpt lat="49.2282" lon="5.03618">
        <ele>152.99</ele>
        <time>2021-07-25T14:01:05Z</time>
      </trkpt>
      <trkpt lat="49.2282" lon="5.03618">
        <ele>152.99</ele>
        <time>2021-07-25T14:01:06Z</time>
      </trkpt>
      <trkpt lat="49.22818" lon="5.03612">
        <ele>152.99</ele>
        <time>2021-07-25T14:01:07Z</time>
      </trkpt>
      <trkpt lat="49.22819" lon="5.03612">
        <ele>152.99</ele>
        <time>2021-07-25T14:01:08Z</time>
      </trkpt>
      <trkpt lat="49.22821" lon="5.0361">
        <ele>152.99</ele>
        <time>2021-07-25T14:01:09Z</time>
      </trkpt>
      <trkpt lat="49.22821" lon="5.0361">
        <ele>152.51</ele>
        <time>2021-07-25T14:01:10Z</time>
      </trkpt>
      <trkpt lat="49.22823" lon="5.03609">
        <ele>152.51</ele>
        <time>2021-07-25T14:01:11Z</time>
      </trkpt>
      <trkpt lat="49.2282" lon="5.03617">
        <ele>152.03</ele>
        <time>2021-07-25T14:01:12Z</time>
      </trkpt>
      <trkpt lat="49.2282" lon="5.03617">
        <ele>152.03</ele>
        <time>2021-07-25T14:01:20Z</time>
      </trkpt>
      <trkpt lat="49.2282" lon="5.03614">
        <ele>152.51</ele>
        <time>2021-07-25T14:01:21Z</time>
      </trkpt>
      <trkpt lat="49.22819" lon="5.03611">
        <ele>152.51</ele>
        <time>2021-07-25T14:01:22Z</time>
      </trkpt>
      <trkpt lat="49.22818" lon="5.03607">
        <ele>152.51</ele>
        <time>2021-07-25T14:01:23Z</time>
      </trkpt>
      <trkpt lat="49.22817" lon="5.03602">
        <ele>152.51</ele>
        <time>2021-07-25T14:01:24Z</time>
      </trkpt>
      <trkpt lat="49.22816" lon="5.03597">
        <ele>152.51</ele>
        <time>2021-07-25T14:01:25Z</time>
      </trkpt>
      <trkpt lat="49.22799" lon="5.03522">
        <ele>152.99</ele>
        <time>2021-07-25T14:01:37Z</time>
      </trkpt>
      <trkpt lat="49.22791" lon="5.03494">
        <ele>152.99</ele>
        <time>2021-07-25T14:01:44Z</time>
      </trkpt>
      <trkpt lat="49.22785" lon="5.03495">
        <ele>152.99</ele>
        <time>2021-07-25T14:01:45Z</time>
      </trkpt>
      <trkpt lat="49.22781" lon="5.03497">
        <ele>152.99</ele>
        <time>2021-07-25T14:01:46Z</time>
      </trkpt>
      <trkpt lat="49.22716" lon="5.03518">
        <ele>151.54</ele>
        <time>2021-07-25T14:01:54Z</time>
      </trkpt>
      <trkpt lat="49.22588" lon="5.03582">
        <ele>150.58</ele>
        <time>2021-07-25T14:02:07Z</time>
      </trkpt>
      <trkpt lat="49.22483" lon="5.03684">
        <ele>151.06</ele>
        <time>2021-07-25T14:02:19Z</time>
      </trkpt>
      <trkpt lat="49.22431" lon="5.03792">
        <ele>152.99</ele>
        <time>2021-07-25T14:02:27Z</time>
      </trkpt>
      <trkpt lat="49.22426" lon="5.03807">
        <ele>153.47</ele>
        <time>2021-07-25T14:02:28Z</time>
      </trkpt>
      <trkpt lat="49.2242" lon="5.03822">
        <ele>153.47</ele>
        <time>2021-07-25T14:02:29Z</time>
      </trkpt>
      <trkpt lat="49.22419" lon="5.03837">
        <ele>153.95</ele>
        <time>2021-07-25T14:02:30Z</time>
      </trkpt>
      <trkpt lat="49.22419" lon="5.03855">
        <ele>154.43</ele>
        <time>2021-07-25T14:02:31Z</time>
      </trkpt>
      <trkpt lat="49.22411" lon="5.04043">
        <ele>166.93</ele>
        <time>2021-07-25T14:02:40Z</time>
      </trkpt>
      <trkpt lat="49.22407" lon="5.04388">
        <ele>184.71</ele>
        <time>2021-07-25T14:02:56Z</time>
      </trkpt>
      <trkpt lat="49.22436" lon="5.04615">
        <ele>186.63</ele>
        <time>2021-07-25T14:03:06Z</time>
      </trkpt>
      <trkpt lat="49.22466" lon="5.04928">
        <ele>190.96</ele>
        <time>2021-07-25T14:03:17Z</time>
      </trkpt>
      <trkpt lat="49.22457" lon="5.05175">
        <ele>193.84</ele>
        <time>2021-07-25T14:03:26Z</time>
      </trkpt>
      <trkpt lat="49.22455" lon="5.05193">
        <ele>194.8</ele>
        <time>2021-07-25T14:03:27Z</time>
      </trkpt>
      <trkpt lat="49.22453" lon="5.0521">
        <ele>195.77</ele>
        <time>2021-07-25T14:03:28Z</time>
      </trkpt>
      <trkpt lat="49.22449" lon="5.05227">
        <ele>195.77</ele>
        <time>2021-07-25T14:03:29Z</time>
      </trkpt>
      <trkpt lat="49.22376" lon="5.05435">
        <ele>196.25</ele>
        <time>2021-07-25T14:03:39Z</time>
      </trkpt>
      <trkpt lat="49.22268" lon="5.05674">
        <ele>192.88</ele>
        <time>2021-07-25T14:03:50Z</time>
      </trkpt>
      <trkpt lat="49.22069" lon="5.05967">
        <ele>192.88</ele>
        <time>2021-07-25T14:04:03Z</time>
      </trkpt>
      <trkpt lat="49.2191" lon="5.06231">
        <ele>195.77</ele>
        <time>2021-07-25T14:04:14Z</time>
      </trkpt>
      <trkpt lat="49.21737" lon="5.06621">
        <ele>193.36</ele>
        <time>2021-07-25T14:04:28Z</time>
      </trkpt>
      <trkpt lat="49.21616" lon="5.06894">
        <ele>191.44</ele>
        <time>2021-07-25T14:04:38Z</time>
      </trkpt>
      <trkpt lat="49.21544" lon="5.0705">
        <ele>193.36</ele>
        <time>2021-07-25T14:04:44Z</time>
      </trkpt>
      <trkpt lat="49.21396" lon="5.07233">
        <ele>198.17</ele>
        <time>2021-07-25T14:04:54Z</time>
      </trkpt>
      <trkpt lat="49.21386" lon="5.07255">
        <ele>198.65</ele>
        <time>2021-07-25T14:04:55Z</time>
      </trkpt>
      <trkpt lat="49.21376" lon="5.07277">
        <ele>199.13</ele>
        <time>2021-07-25T14:04:56Z</time>
      </trkpt>
      <trkpt lat="49.21309" lon="5.07484">
        <ele>202.49</ele>
        <time>2021-07-25T14:05:05Z</time>
      </trkpt>
      <trkpt lat="49.21242" lon="5.07771">
        <ele>200.09</ele>
        <time>2021-07-25T14:05:16Z</time>
      </trkpt>
      <trkpt lat="49.21134" lon="5.08063">
        <ele>200.09</ele>
        <time>2021-07-25T14:05:27Z</time>
      </trkpt>
      <trkpt lat="49.21004" lon="5.0828">
        <ele>208.74</ele>
        <time>2021-07-25T14:05:37Z</time>
      </trkpt>
      <trkpt lat="49.20919" lon="5.08437">
        <ele>202.49</ele>
        <time>2021-07-25T14:05:45Z</time>
      </trkpt>
      <trkpt lat="49.20911" lon="5.08451">
        <ele>201.53</ele>
        <time>2021-07-25T14:05:46Z</time>
      </trkpt>
      <trkpt lat="49.20904" lon="5.08467">
        <ele>200.57</ele>
        <time>2021-07-25T14:05:47Z</time>
      </trkpt>
      <trkpt lat="49.20899" lon="5.08486">
        <ele>199.13</ele>
        <time>2021-07-25T14:05:48Z</time>
      </trkpt>
      <trkpt lat="49.20898" lon="5.08505">
        <ele>197.69</ele>
        <time>2021-07-25T14:05:49Z</time>
      </trkpt>
      <trkpt lat="49.20898" lon="5.08527">
        <ele>196.25</ele>
        <time>2021-07-25T14:05:50Z</time>
      </trkpt>
      <trkpt lat="49.20897" lon="5.08567">
        <ele>195.28</ele>
        <time>2021-07-25T14:05:52Z</time>
      </trkpt>
      <trkpt lat="49.20894" lon="5.08585">
        <ele>194.8</ele>
        <time>2021-07-25T14:05:53Z</time>
      </trkpt>
      <trkpt lat="49.20889" lon="5.08603">
        <ele>194.8</ele>
        <time>2021-07-25T14:05:54Z</time>
      </trkpt>
      <trkpt lat="49.20882" lon="5.08619">
        <ele>193.84</ele>
        <time>2021-07-25T14:05:55Z</time>
      </trkpt>
      <trkpt lat="49.20873" lon="5.08636">
        <ele>193.84</ele>
        <time>2021-07-25T14:05:56Z</time>
      </trkpt>
      <trkpt lat="49.20743" lon="5.0885">
        <ele>200.09</ele>
        <time>2021-07-25T14:06:07Z</time>
      </trkpt>
      <trkpt lat="49.20564" lon="5.09135">
        <ele>202.01</ele>
        <time>2021-07-25T14:06:20Z</time>
      </trkpt>
      <trkpt lat="49.20548" lon="5.09151">
        <ele>203.46</ele>
        <time>2021-07-25T14:06:21Z</time>
      </trkpt>
      <trkpt lat="49.20534" lon="5.09164">
        <ele>203.94</ele>
        <time>2021-07-25T14:06:22Z</time>
      </trkpt>
      <trkpt lat="49.20486" lon="5.09192">
        <ele>206.82</ele>
        <time>2021-07-25T14:06:27Z</time>
      </trkpt>
      <trkpt lat="49.20481" lon="5.09195">
        <ele>206.82</ele>
        <time>2021-07-25T14:06:28Z</time>
      </trkpt>
      <trkpt lat="49.20477" lon="5.09198">
        <ele>206.34</ele>
        <time>2021-07-25T14:06:29Z</time>
      </trkpt>
      <trkpt lat="49.2047" lon="5.09187">
        <ele>206.34</ele>
        <time>2021-07-25T14:06:30Z</time>
      </trkpt>
      <trkpt lat="49.20468" lon="5.09178">
        <ele>206.34</ele>
        <time>2021-07-25T14:06:31Z</time>
      </trkpt>
      <trkpt lat="49.20465" lon="5.0917">
        <ele>206.82</ele>
        <time>2021-07-25T14:06:32Z</time>
      </trkpt>
      <trkpt lat="49.20431" lon="5.09057">
        <ele>211.63</ele>
        <time>2021-07-25T14:06:41Z</time>
      </trkpt>
      <trkpt lat="49.20367" lon="5.08859">
        <ele>219.32</ele>
        <time>2021-07-25T14:06:53Z</time>
      </trkpt>
      <trkpt lat="49.20306" lon="5.08635">
        <ele>228.93</ele>
        <time>2021-07-25T14:07:05Z</time>
      </trkpt>
      <trkpt lat="49.20288" lon="5.0856">
        <ele>229.89</ele>
        <time>2021-07-25T14:07:09Z</time>
      </trkpt>
      <trkpt lat="49.20285" lon="5.0854">
        <ele>229.41</ele>
        <time>2021-07-25T14:07:10Z</time>
      </trkpt>
      <trkpt lat="49.20283" lon="5.08522">
        <ele>229.89</ele>
        <time>2021-07-25T14:07:11Z</time>
      </trkpt>
      <trkpt lat="49.20285" lon="5.08503">
        <ele>231.81</ele>
        <time>2021-07-25T14:07:12Z</time>
      </trkpt>
      <trkpt lat="49.20287" lon="5.08484">
        <ele>232.3</ele>
        <time>2021-07-25T14:07:13Z</time>
      </trkpt>
      <trkpt lat="49.20293" lon="5.08466">
        <ele>231.81</ele>
        <time>2021-07-25T14:07:14Z</time>
      </trkpt>
      <trkpt lat="49.20298" lon="5.08449">
        <ele>231.33</ele>
        <time>2021-07-25T14:07:15Z</time>
      </trkpt>
      <trkpt lat="49.20317" lon="5.08376">
        <ele>230.37</ele>
        <time>2021-07-25T14:07:19Z</time>
      </trkpt>
      <trkpt lat="49.2032" lon="5.08357">
        <ele>230.85</ele>
        <time>2021-07-25T14:07:20Z</time>
      </trkpt>
      <trkpt lat="49.20322" lon="5.08338">
        <ele>230.85</ele>
        <time>2021-07-25T14:07:21Z</time>
      </trkpt>
      <trkpt lat="49.20326" lon="5.0809">
        <ele>227.97</ele>
        <time>2021-07-25T14:07:32Z</time>
      </trkpt>
      <trkpt lat="49.20331" lon="5.07898">
        <ele>227.49</ele>
        <time>2021-07-25T14:07:41Z</time>
      </trkpt>
      <trkpt lat="49.20374" lon="5.07756">
        <ele>223.16</ele>
        <time>2021-07-25T14:07:50Z</time>
      </trkpt>
      <trkpt lat="49.20408" lon="5.07656">
        <ele>220.28</ele>
        <time>2021-07-25T14:07:58Z</time>
      </trkpt>
      <trkpt lat="49.20413" lon="5.07618">
        <ele>219.8</ele>
        <time>2021-07-25T14:08:01Z</time>
      </trkpt>
      <trkpt lat="49.20414" lon="5.07606">
        <ele>219.32</ele>
        <time>2021-07-25T14:08:02Z</time>
      </trkpt>
      <trkpt lat="49.20415" lon="5.07456">
        <ele>221.24</ele>
        <time>2021-07-25T14:08:14Z</time>
      </trkpt>
      <trkpt lat="49.20406" lon="5.07404">
        <ele>225.09</ele>
        <time>2021-07-25T14:08:24Z</time>
      </trkpt>
      <trkpt lat="49.20383" lon="5.07325">
        <ele>227.01</ele>
        <time>2021-07-25T14:08:35Z</time>
      </trkpt>
    </trkseg>
  </trk>
</gpx>